Time;durP1;ratioP1;P1;durP2;ratioP2;P2;SDS_P1;SDS_P2;PMS_P1;PMS_P2;Temp;Humidity;BMP_temperature;BMP_pressure;BME280_temperature;BME280_humidity;BME280_pressure;Samples;Min_cycle;Max_cycle;Signal;HPM_P1;HPM_P2
2023/01/26 00:04:46;;;;;;;26.73;15.10;;;;;;;;;;21166077;28;20631;-72
2023/01/26 00:14:48;;;;;;;27.50;15.63;;;;;;;;;;21165836;28;20227;-72
2023/01/26 00:24:51;;;;;;;36.13;16.43;;;;;;;;;;21176355;28;20692;-72
2023/01/26 00:34:53;;;;;;;33.43;17.63;;;;;;;;;;21174007;28;20282;-72
2023/01/26 00:44:55;;;;;;;29.07;16.27;;;;;;;;;;21165634;28;20649;-72
2023/01/26 00:54:58;;;;;;;29.23;15.27;;;;;;;;;;21164708;28;20202;-72
2023/01/26 01:05:00;;;;;;;37.70;17.93;;;;;;;;;;21164277;28;20274;-72
2023/01/26 01:15:02;;;;;;;33.53;17.90;;;;;;;;;;21163567;28;20209;-71
2023/01/26 01:25:04;;;;;;;35.00;18.70;;;3.40;92.20;;;;;;21161557;28;20287;-72
2023/01/26 01:35:07;;;;;;;35.47;19.03;;;;;;;;;;21163261;28;20210;-71
2023/01/26 01:45:39;;;;;;;33.70;18.17;;;3.50;92.30;;;;;;21162150;28;20294;-72
2023/01/26 01:55:42;;;;;;;34.37;17.90;;;;;;;;;;21161950;28;20547;-71
2023/01/26 02:05:44;;;;;;;34.57;19.40;;;;;;;;;;21161713;28;20290;-71
2023/01/26 02:15:46;;;;;;;34.10;17.00;;;;;;;;;;21161320;28;20202;-72
2023/01/26 02:25:51;;;;;;;29.97;15.83;;;3.30;92.10;;;;;;21160591;28;20242;-72
2023/01/26 02:35:53;;;;;;;38.17;19.63;;;;;;;;;;21173233;28;20694;-72
2023/01/26 02:45:55;;;;;;;33.00;18.13;;;;;;;;;;21174743;28;20235;-72
2023/01/26 02:55:58;;;;;;;36.20;18.10;;;;;;;;;;21174137;28;20297;-72
2023/01/26 03:06:00;;;;;;;37.30;18.50;;;;;;;;;;21173569;28;20630;-72
2023/01/26 03:16:06;;;;;;;32.63;17.53;;;2.90;93.00;;;;;;21172616;28;20206;-72
2023/01/26 03:36:29;;;;;;;27.23;14.20;;;;;;;;;;21170799;28;20205;-71
2023/01/26 03:56:52;;;;;;;27.70;14.87;;;;;;;;;;21169435;28;20206;-72
2023/01/26 04:27:37;;;;;;;25.00;12.33;;;;;;;;;;21166661;28;20294;-72
2023/01/26 04:37:39;;;;;;;21.53;12.23;;;;;;;;;;21166066;28;20202;-72
2023/01/26 04:47:41;;;;;;;26.30;13.93;;;;;;;;;;21165556;28;20754;-72
2023/01/26 04:57:43;;;;;;;21.87;11.30;;;;;;;;;;21164030;28;20201;-72
2023/01/26 05:07:49;;;;;;;20.10;10.43;;;;;;;;;;21163864;28;20290;-72
2023/01/26 05:17:51;;;;;;;18.90;9.37;;;;;;;;;;21164128;28;20202;-72
2023/01/26 05:27:53;;;;;;;19.30;10.57;;;;;;;;;;21162468;28;20286;-72
2023/01/26 05:37:55;;;;;;;22.83;11.33;;;;;;;;;;21162442;28;20205;-72
2023/01/26 05:48:24;;;;;;;18.83;10.90;;;;;;;;;;21068112;27;20567;-72
2023/01/26 05:58:26;;;;;;;22.40;10.67;;;;;;;;;;21067086;28;20681;-73
2023/01/26 06:08:28;;;;;;;20.23;10.90;;;;;;;;;;21066355;28;20264;-72
2023/01/26 06:18:30;;;;;;;23.67;10.90;;;;;;;;;;21064347;28;20666;-72
2023/01/26 06:28:32;;;;;;;23.77;11.87;;;;;;;;;;21064382;28;20237;-72
2023/01/26 06:38:35;;;;;;;22.13;11.70;;;;;;;;;;21061823;28;20214;-72
2023/01/26 06:48:37;;;;;;;20.30;10.93;;;;;;;;;;21063181;28;20252;-73
2023/01/26 06:58:39;;;;;;;22.97;12.40;;;;;;;;;;21011818;28;20280;-73
2023/01/26 07:08:41;;;;;;;22.97;11.43;;;;;;;;;;21005048;28;20252;-73
2023/01/26 07:18:44;;;;;;;22.87;10.00;;;;;;;;;;21005142;28;20252;-73
2023/01/26 07:28:46;;;;;;;21.67;11.57;;;;;;;;;;21002654;28;20215;-73
2023/01/26 07:38:48;;;;;;;27.90;12.50;;;;;;;;;;21003265;28;20235;-73
2023/01/26 07:48:50;;;;;;;26.43;12.40;;;;;;;;;;21004292;28;20211;-72
2023/01/26 07:58:53;;;;;;;28.27;11.83;;;3.40;93.00;;;;;;21001538;28;20227;-72
2023/01/26 08:08:56;;;;;;;23.93;11.43;;;;;;;;;;20999148;28;20608;-72
2023/01/26 08:18:58;;;;;;;16.33;9.43;;;;;;;;;;21000433;28;20231;-73
2023/01/26 08:29:00;;;;;;;20.83;9.53;;;;;;;;;;20998707;28;20203;-73
2023/01/26 08:39:03;;;;;;;18.17;9.10;;;;;;;;;;20997385;28;20285;-73
2023/01/26 08:49:05;;;;;;;18.87;9.57;;;;;;;;;;20997631;28;20547;-73
2023/01/26 09:07:53;;;;;;;16.50;8.40;;;;;;;;;;21067319;27;20578;-73
2023/01/26 09:17:55;;;;;;;13.70;7.07;;;;;;;;;;21066726;28;20206;-73
2023/01/26 09:28:01;;;;;;;12.47;6.40;;;2.90;94.20;;;;;;21067332;28;20276;-73
2023/01/26 09:38:06;;;;;;;10.60;5.83;;;;;;;;;;21065159;28;20211;-72
2023/01/26 09:48:38;;;;;;;12.07;6.33;;;2.70;94.30;;;;;;21065080;28;20561;-72
2023/01/26 09:58:41;;;;;;;11.00;5.60;;;;;;;;;;21054874;28;20257;-72
2023/01/26 10:08:43;;;;;;;8.50;4.97;;;;;;;;;;21063965;28;20815;-72
2023/01/26 10:20:38;;;;;;;10.93;5.73;;;3.00;94.00;;;;;;21067641;28;20283;-74
2023/01/26 10:30:43;;;;;;;9.43;5.60;;;3.20;93.80;;;;;;21066958;28;20198;-73
2023/01/26 10:40:45;;;;;;;5.63;3.83;;;;;;;;;;21065557;28;20210;-73
2023/01/26 10:50:47;;;;;;;4.60;3.03;;;2.30;92.30;;;;;;21064866;28;20241;-73
2023/01/26 11:00:55;;;;;;;13.93;7.23;;;3.30;92.60;;;;;;21064300;28;20211;-73
2023/01/26 11:10:57;;;;;;;31.17;12.03;;;;;;;;;;21067387;28;20277;-73
2023/01/26 11:21:11;;;;;;;19.27;9.23;;;3.50;91.90;;;;;;21146774;28;20202;-73
2023/01/26 11:31:29;;;;;;;10.33;5.60;;;3.50;91.60;;;;;;21093521;28;20294;-73
2023/01/26 11:41:58;;;;;;;4.07;3.00;;;3.40;91.20;;;;;;21074006;28;20243;-73
2023/01/26 11:52:21;;;;;;;6.57;2.93;;;3.40;90.90;;;;;;21088021;28;20230;-73
2023/01/26 12:02:35;;;;;;;3.83;2.97;;;3.40;90.60;;;;;;21068942;28;20207;-74
2023/01/26 12:12:46;;;;;;;5.00;3.30;;;3.70;90.90;;;;;;21067780;28;20244;-73
2023/01/26 12:23:12;;;;;;;7.17;3.77;;;3.50;90.70;;;;;;21067383;28;20725;-73
2023/01/26 12:33:14;;;;;;;5.27;3.73;;;;;;;;;;21085042;28;20234;-74
2023/01/26 12:43:43;;;;;;;8.97;4.07;;;3.40;90.60;;;;;;21068871;28;20202;-73
2023/01/26 12:53:45;;;;;;;6.80;3.93;;;;;;;;;;21047193;28;20234;-73
2023/01/26 13:03:56;;;;;;;234.97;102.53;;;3.50;90.70;;;;;;21024754;28;20599;-73
2023/01/26 13:13:58;;;;;;;9.10;5.27;;;;;;;;;;20997347;28;20238;-74
2023/01/26 13:24:00;;;;;;;9.93;5.40;;;;;;;;;;21080750;28;20229;-73
2023/01/26 13:34:07;;;;;;;7.53;5.47;;;0.40;90.00;;;;;;21080046;28;20234;-73
2023/01/26 13:44:19;;;;;;;9.80;5.87;;;2.70;91.00;;;;;;21079471;28;20207;-73
2023/01/26 13:54:22;;;;;;;8.53;5.13;;;2.80;91.20;;;;;;21078119;28;20287;-73
2023/01/26 14:04:29;;;;;;;9.00;5.57;;;2.80;91.30;;;;;;21078260;28;20249;-73
2023/01/26 14:14:34;;;;;;;12.17;6.97;;;2.60;91.50;;;;;;21077904;28;20292;-73
2023/01/26 14:24:38;;;;;;;9.47;5.93;;;3.80;92.20;;;;;;21079076;28;20214;-73
2023/01/26 14:34:51;;;;;;;11.27;5.93;;;3.10;92.10;;;;;;21076991;28;20771;-73
2023/01/26 14:44:53;;;;;;;8.60;5.50;;;;;;;;;;21058839;28;20211;-73
2023/01/26 14:54:57;;;;;;;10.63;6.10;;;1.80;91.40;;;;;;21076183;28;20238;-72
2023/01/26 15:04:59;;;;;;;11.37;6.73;;;;;;;;;;21088319;28;20251;-72
2023/01/26 15:15:01;;;;;;;26.90;11.53;;;;;;;;;;21093563;28;20238;-71
2023/01/26 15:25:05;;;;;;;14.30;6.83;;;2.30;91.50;;;;;;21092124;28;20723;-71
2023/01/26 15:35:36;;;;;;;9.00;5.83;;;2.70;91.30;;;;;;21089445;28;20586;-74
2023/01/26 15:45:43;;;;;;;11.17;6.47;;;;;;;;;;21088851;28;20207;-72
2023/01/26 16:01:21;;;;;;;11.83;7.13;;;2.40;91.00;;;;;;21236472;27;20586;-76
2023/01/26 16:11:35;;;;;;;12.40;7.53;;;2.30;90.70;;;;;;21235354;28;20205;-75
2023/01/26 16:21:38;;;;;;;9.33;6.57;;;;;;;;;;21234827;28;20225;-74
2023/01/26 16:31:42;;;;;;;12.13;5.57;;;;;;;;;;21232676;28;20254;-74
2023/01/26 16:41:44;;;;;;;13.50;6.50;;;;;;;;;;21231479;28;20229;-75
2023/01/26 16:51:46;;;;;;;15.73;6.93;;;;;;;;;;21230322;28;20708;-71
2023/01/26 17:01:48;;;;;;;8.60;5.90;;;;;;;;;;21231015;28;20236;-71
2023/01/26 17:11:51;;;;;;;9.30;6.37;;;;;;;;;;21178697;28;20244;-75
2023/01/26 17:21:53;;;;;;;10.37;6.87;;;;;;;;;;21173567;28;20279;-74
2023/01/26 17:31:55;;;;;;;9.87;6.80;;;;;;;;;;21171959;28;20210;-71
2023/01/26 17:41:57;;;;;;;11.00;6.23;;;;;;;;;;21172501;28;20222;-72
2023/01/26 17:51:59;;;;;;;8.77;5.67;;;;;;;;;;21171247;28;20229;-73
2023/01/26 18:02:01;;;;;;;11.87;6.57;;;;;;;;;;21172062;28;20222;-72
2023/01/26 18:12:03;;;;;;;12.37;7.43;;;;;;;;;;21156618;28;20770;-71
2023/01/26 18:22:06;;;;;;;11.10;6.87;;;;;;;;;;21167200;27;20229;-71
2023/01/26 18:32:11;;;;;;;10.97;6.63;;;2.50;89.00;;;;;;21163355;28;20612;-72
2023/01/26 18:42:13;;;;;;;12.83;7.63;;;;;;;;;;21168321;28;20254;-69
2023/01/26 18:52:15;;;;;;;10.77;6.83;;;;;;;;;;21167443;28;20238;-70
2023/01/26 19:02:17;;;;;;;11.20;7.03;;;;;;;;;;21167145;28;20298;-71
2023/01/26 19:12:19;;;;;;;13.10;7.83;;;;;;;;;;21143216;27;20251;-73
2023/01/26 19:22:22;;;;;;;13.80;10.40;;;;;;;;;;21156043;28;20453;-75
2023/01/26 19:32:24;;;;;;;23.40;8.47;;;;;;;;;;21127377;28;20208;-72
2023/01/26 19:42:27;;;;;;;16.47;8.13;;;;;;;;;;21161271;28;20229;-75
2023/01/26 19:52:29;;;;;;;15.53;8.63;;;;;;;;;;21083645;28;20241;-76
2023/01/26 20:12:39;;;;;;;15.10;9.00;;;;;;;;;;21067840;27;20570;-78
2023/01/26 20:22:41;;;;;;;16.23;8.90;;;;;;;;;;21066494;28;20220;-78
2023/01/26 20:32:44;;;;;;;16.33;8.77;;;;;;;;;;21066793;28;20716;-75
2023/01/26 20:42:46;;;;;;;15.70;8.83;;;;;;;;;;21016591;28;20207;-75
2023/01/26 20:52:48;;;;;;;13.73;8.47;;;;;;;;;;21056236;28;20249;-74
2023/01/26 21:02:50;;;;;;;15.13;8.27;;;;;;;;;;20980028;28;20212;-76
2023/01/26 21:12:52;;;;;;;15.53;8.63;;;;;;;;;;20978853;28;20723;-75
2023/01/26 21:22:54;;;;;;;13.43;8.63;;;;;;;;;;20929464;28;20215;-75
2023/01/26 21:32:56;;;;;;;15.00;8.87;;;;;;;;;;20961226;28;20732;-76
2023/01/26 21:42:58;;;;;;;14.90;9.20;;;;;;;;;;21005001;28;20212;-75
2023/01/26 21:53:00;;;;;;;17.17;8.53;;;;;;;;;;21004235;28;20701;-75
2023/01/26 22:03:02;;;;;;;14.73;8.53;;;;;;;;;;21003539;28;20311;-75
2023/01/26 22:13:05;;;;;;;13.67;8.20;;;;;;;;;;21002648;28;20724;-74
2023/01/26 22:23:07;;;;;;;12.57;7.57;;;;;;;;;;21001490;28;20562;-75
2023/01/26 22:33:09;;;;;;;17.37;8.83;;;;;;;;;;20971699;28;20223;-79
2023/01/26 22:43:11;;;;;;;13.30;8.53;;;;;;;;;;21000297;28;20214;-78
2023/01/26 22:53:13;;;;;;;15.80;7.77;;;;;;;;;;20999293;28;20215;-79
2023/01/26 23:03:15;;;;;;;14.77;7.97;;;;;;;;;;21079126;28;20780;-81
2023/01/26 23:13:17;;;;;;;16.83;8.20;;;;;;;;;;21113933;28;20230;-81
2023/01/26 23:23:21;;;;;;;14.47;8.17;;;;;;;;;;21004079;28;20211;-82
2023/01/26 23:33:25;;;;;;;12.97;7.03;;;1.80;89.30;;;;;;20996802;28;20827;-80
2023/01/26 23:43:27;;;;;;;13.47;7.50;;;;;;;;;;20997018;28;20680;-78
2023/01/26 23:53:30;;;;;;;12.00;7.47;;;;;;;;;;20996247;28;20276;-77
